sensor_id;sensor_type;location;lat;lon;timestamp;P1;durP1;ratioP1;P2;durP2;ratioP2
79128;SDS011;68529;43.286;23.360;2024-01-15T00:00:18;6.03;;;4.80;;
79128;SDS011;68529;43.286;23.360;2024-01-15T00:02:44;5.23;;;4.30;;
79128;SDS011;68529;43.286;23.360;2024-01-15T00:05:09;6.60;;;5.13;;
79128;SDS011;68529;43.286;23.360;2024-01-15T00:07:35;7.67;;;4.70;;
79128;SDS011;68529;43.286;23.360;2024-01-15T00:10:01;8.37;;;5.73;;
79128;SDS011;68529;43.286;23.360;2024-01-15T00:12:26;11.60;;;7.60;;
79128;SDS011;68529;43.286;23.360;2024-01-15T00:14:52;18.13;;;10.63;;
79128;SDS011;68529;43.286;23.360;2024-01-15T00:17:17;22.90;;;11.67;;
79128;SDS011;68529;43.286;23.360;2024-01-15T00:19:42;31.23;;;15.93;;
79128;SDS011;68529;43.286;23.360;2024-01-15T00:22:08;21.73;;;10.97;;
79128;SDS011;68529;43.286;23.360;2024-01-15T00:24:33;23.23;;;11.60;;
79128;SDS011;68529;43.286;23.360;2024-01-15T00:26:59;41.13;;;18.97;;
79128;SDS011;68529;43.286;23.360;2024-01-15T00:29:24;27.17;;;12.80;;
79128;SDS011;68529;43.286;23.360;2024-01-15T00:31:49;27.63;;;13.83;;
79128;SDS011;68529;43.286;23.360;2024-01-15T00:34:15;23.13;;;12.33;;
79128;SDS011;68529;43.286;23.360;2024-01-15T00:36:40;15.63;;;7.77;;
79128;SDS011;68529;43.286;23.360;2024-01-15T00:39:06;15.23;;;9.10;;
79128;SDS011;68529;43.286;23.360;2024-01-15T00:41:31;19.47;;;11.40;;
79128;SDS011;68529;43.286;23.360;2024-01-15T00:43:57;20.80;;;13.67;;
79128;SDS011;68529;43.286;23.360;2024-01-15T00:46:22;21.30;;;12.73;;
79128;SDS011;68529;43.286;23.360;2024-01-15T00:48:48;17.80;;;10.33;;
79128;SDS011;68529;43.286;23.360;2024-01-15T00:51:13;26.10;;;13.50;;
79128;SDS011;68529;43.286;23.360;2024-01-15T00:53:39;28.97;;;16.30;;
79128;SDS011;68529;43.286;23.360;2024-01-15T00:56:05;11.40;;;7.07;;
79128;SDS011;68529;43.286;23.360;2024-01-15T00:58:30;16.47;;;9.67;;
79128;SDS011;68529;43.286;23.360;2024-01-15T01:00:56;15.10;;;9.73;;
79128;SDS011;68529;43.286;23.360;2024-01-15T01:03:21;9.00;;;6.63;;
79128;SDS011;68529;43.286;23.360;2024-01-15T01:05:49;11.03;;;7.30;;
79128;SDS011;68529;43.286;23.360;2024-01-15T01:08:15;10.77;;;6.10;;
79128;SDS011;68529;43.286;23.360;2024-01-15T01:10:40;7.97;;;6.20;;
79128;SDS011;68529;43.286;23.360;2024-01-15T01:13:07;7.90;;;6.27;;
79128;SDS011;68529;43.286;23.360;2024-01-15T01:15:33;9.40;;;6.43;;
79128;SDS011;68529;43.286;23.360;2024-01-15T01:17:59;13.63;;;10.40;;
79128;SDS011;68529;43.286;23.360;2024-01-15T01:20:24;11.30;;;8.17;;
79128;SDS011;68529;43.286;23.360;2024-01-15T01:22:49;7.13;;;5.13;;
79128;SDS011;68529;43.286;23.360;2024-01-15T01:25:15;7.20;;;4.40;;
79128;SDS011;68529;43.286;23.360;2024-01-15T01:27:40;7.13;;;4.77;;
79128;SDS011;68529;43.286;23.360;2024-01-15T01:30:06;6.97;;;5.23;;
79128;SDS011;68529;43.286;23.360;2024-01-15T01:32:31;9.13;;;5.70;;
79128;SDS011;68529;43.286;23.360;2024-01-15T01:34:57;6.70;;;5.37;;
79128;SDS011;68529;43.286;23.360;2024-01-15T01:37:22;7.40;;;5.00;;
79128;SDS011;68529;43.286;23.360;2024-01-15T01:39:48;21.40;;;13.93;;
79128;SDS011;68529;43.286;23.360;2024-01-15T01:42:13;44.77;;;24.43;;
79128;SDS011;68529;43.286;23.360;2024-01-15T01:44:39;33.80;;;20.17;;
79128;SDS011;68529;43.286;23.360;2024-01-15T01:47:04;24.77;;;15.27;;
79128;SDS011;68529;43.286;23.360;2024-01-15T01:49:30;8.57;;;6.00;;
79128;SDS011;68529;43.286;23.360;2024-01-15T01:51:57;30.20;;;17.23;;
79128;SDS011;68529;43.286;23.360;2024-01-15T01:54:25;28.67;;;16.47;;
79128;SDS011;68529;43.286;23.360;2024-01-15T01:56:53;21.13;;;14.37;;
79128;SDS011;68529;43.286;23.360;2024-01-15T01:59:19;22.40;;;14.30;;
79128;SDS011;68529;43.286;23.360;2024-01-15T02:01:46;16.07;;;9.93;;
79128;SDS011;68529;43.286;23.360;2024-01-15T02:04:12;21.53;;;12.43;;
79128;SDS011;68529;43.286;23.360;2024-01-15T02:06:37;51.67;;;26.83;;
79128;SDS011;68529;43.286;23.360;2024-01-15T02:09:03;75.20;;;37.57;;
79128;SDS011;68529;43.286;23.360;2024-01-15T02:11:30;24.80;;;14.97;;
79128;SDS011;68529;43.286;23.360;2024-01-15T02:13:56;59.93;;;33.93;;
79128;SDS011;68529;43.286;23.360;2024-01-15T02:16:21;45.80;;;27.63;;
79128;SDS011;68529;43.286;23.360;2024-01-15T02:18:47;19.13;;;13.63;;
79128;SDS011;68529;43.286;23.360;2024-01-15T02:21:12;11.27;;;8.33;;
79128;SDS011;68529;43.286;23.360;2024-01-15T02:23:38;7.20;;;5.77;;
79128;SDS011;68529;43.286;23.360;2024-01-15T02:26:04;5.47;;;4.80;;
79128;SDS011;68529;43.286;23.360;2024-01-15T02:28:30;7.80;;;6.90;;
79128;SDS011;68529;43.286;23.360;2024-01-15T02:30:57;4.77;;;4.27;;
79128;SDS011;68529;43.286;23.360;2024-01-15T02:33:22;4.30;;;3.50;;
79128;SDS011;68529;43.286;23.360;2024-01-15T02:35:48;4.07;;;3.47;;
79128;SDS011;68529;43.286;23.360;2024-01-15T02:38:15;4.47;;;3.17;;
79128;SDS011;68529;43.286;23.360;2024-01-15T02:40:41;7.67;;;3.57;;
79128;SDS011;68529;43.286;23.360;2024-01-15T02:43:06;3.63;;;2.90;;
79128;SDS011;68529;43.286;23.360;2024-01-15T02:45:32;4.70;;;4.17;;
79128;SDS011;68529;43.286;23.360;2024-01-15T02:47:57;4.87;;;3.50;;
79128;SDS011;68529;43.286;23.360;2024-01-15T02:50:23;3.50;;;3.20;;
79128;SDS011;68529;43.286;23.360;2024-01-15T02:52:48;4.70;;;3.40;;
79128;SDS011;68529;43.286;23.360;2024-01-15T02:55:13;5.37;;;4.73;;
79128;SDS011;68529;43.286;23.360;2024-01-15T02:57:39;4.97;;;4.43;;
79128;SDS011;68529;43.286;23.360;2024-01-15T03:00:04;8.80;;;5.87;;
79128;SDS011;68529;43.286;23.360;2024-01-15T03:02:30;12.37;;;8.50;;
79128;SDS011;68529;43.286;23.360;2024-01-15T03:04:58;10.73;;;7.33;;
79128;SDS011;68529;43.286;23.360;2024-01-15T03:07:23;7.40;;;5.67;;
79128;SDS011;68529;43.286;23.360;2024-01-15T03:09:49;8.43;;;5.40;;
79128;SDS011;68529;43.286;23.360;2024-01-15T03:12:14;5.20;;;3.80;;
79128;SDS011;68529;43.286;23.360;2024-01-15T03:14:40;5.73;;;4.60;;
79128;SDS011;68529;43.286;23.360;2024-01-15T03:17:06;4.60;;;4.03;;
79128;SDS011;68529;43.286;23.360;2024-01-15T03:19:34;7.00;;;5.27;;
79128;SDS011;68529;43.286;23.360;2024-01-15T03:22:00;8.40;;;5.77;;
79128;SDS011;68529;43.286;23.360;2024-01-15T03:24:27;6.77;;;5.20;;
79128;SDS011;68529;43.286;23.360;2024-01-15T03:26:52;7.07;;;5.63;;
79128;SDS011;68529;43.286;23.360;2024-01-15T03:29:18;8.23;;;5.27;;
79128;SDS011;68529;43.286;23.360;2024-01-15T03:31:43;7.27;;;5.27;;
79128;SDS011;68529;43.286;23.360;2024-01-15T03:34:08;9.33;;;6.83;;
79128;SDS011;68529;43.286;23.360;2024-01-15T03:36:34;9.93;;;7.93;;
79128;SDS011;68529;43.286;23.360;2024-01-15T03:38:59;20.47;;;13.60;;
79128;SDS011;68529;43.286;23.360;2024-01-15T03:41:25;19.13;;;13.40;;
79128;SDS011;68529;43.286;23.360;2024-01-15T03:43:50;22.37;;;12.87;;
79128;SDS011;68529;43.286;23.360;2024-01-15T03:46:15;19.83;;;13.83;;
79128;SDS011;68529;43.286;23.360;2024-01-15T03:48:41;17.97;;;11.50;;
79128;SDS011;68529;43.286;23.360;2024-01-15T03:51:06;14.77;;;10.67;;
79128;SDS011;68529;43.286;23.360;2024-01-15T03:53:32;10.43;;;7.47;;
79128;SDS011;68529;43.286;23.360;2024-01-15T03:55:57;15.37;;;11.93;;
79128;SDS011;68529;43.286;23.360;2024-01-15T03:58:22;16.87;;;11.40;;
79128;SDS011;68529;43.286;23.360;2024-01-15T04:00:48;15.30;;;11.57;;
79128;SDS011;68529;43.286;23.360;2024-01-15T04:03:13;11.13;;;8.27;;
79128;SDS011;68529;43.286;23.360;2024-01-15T04:05:38;11.50;;;7.90;;
79128;SDS011;68529;43.286;23.360;2024-01-15T04:08:04;11.40;;;7.27;;
79128;SDS011;68529;43.286;23.360;2024-01-15T04:10:29;8.23;;;6.57;;
79128;SDS011;68529;43.286;23.360;2024-01-15T04:12:55;40.53;;;21.03;;
79128;SDS011;68529;43.286;23.360;2024-01-15T04:15:20;22.20;;;13.30;;
79128;SDS011;68529;43.286;23.360;2024-01-15T04:17:46;22.13;;;12.60;;
79128;SDS011;68529;43.286;23.360;2024-01-15T04:20:11;21.03;;;13.93;;
79128;SDS011;68529;43.286;23.360;2024-01-15T04:22:37;13.10;;;9.77;;
79128;SDS011;68529;43.286;23.360;2024-01-15T04:25:02;11.67;;;9.10;;
79128;SDS011;68529;43.286;23.360;2024-01-15T04:27:28;10.90;;;7.23;;
79128;SDS011;68529;43.286;23.360;2024-01-15T04:29:54;9.57;;;6.53;;
79128;SDS011;68529;43.286;23.360;2024-01-15T04:32:19;11.53;;;7.30;;
79128;SDS011;68529;43.286;23.360;2024-01-15T04:34:44;9.93;;;5.40;;
79128;SDS011;68529;43.286;23.360;2024-01-15T04:37:10;13.10;;;6.73;;
79128;SDS011;68529;43.286;23.360;2024-01-15T04:39:35;7.73;;;5.43;;
79128;SDS011;68529;43.286;23.360;2024-01-15T04:42:01;8.40;;;5.17;;
79128;SDS011;68529;43.286;23.360;2024-01-15T04:44:26;7.13;;;4.70;;
79128;SDS011;68529;43.286;23.360;2024-01-15T04:46:52;5.80;;;3.80;;
79128;SDS011;68529;43.286;23.360;2024-01-15T04:49:17;5.20;;;4.50;;
79128;SDS011;68529;43.286;23.360;2024-01-15T04:51:42;4.93;;;4.07;;
79128;SDS011;68529;43.286;23.360;2024-01-15T04:54:08;6.33;;;4.67;;
79128;SDS011;68529;43.286;23.360;2024-01-15T04:56:33;6.27;;;4.70;;
79128;SDS011;68529;43.286;23.360;2024-01-15T04:58:58;5.70;;;4.90;;
79128;SDS011;68529;43.286;23.360;2024-01-15T05:01:24;7.03;;;5.20;;
79128;SDS011;68529;43.286;23.360;2024-01-15T05:03:49;5.73;;;4.90;;
79128;SDS011;68529;43.286;23.360;2024-01-15T05:06:14;4.97;;;4.00;;
79128;SDS011;68529;43.286;23.360;2024-01-15T05:08:40;6.17;;;4.60;;
79128;SDS011;68529;43.286;23.360;2024-01-15T05:11:06;6.17;;;4.70;;
79128;SDS011;68529;43.286;23.360;2024-01-15T05:13:31;6.10;;;4.67;;
79128;SDS011;68529;43.286;23.360;2024-01-15T05:15:56;5.43;;;4.80;;
79128;SDS011;68529;43.286;23.360;2024-01-15T05:18:22;5.80;;;5.13;;
79128;SDS011;68529;43.286;23.360;2024-01-15T05:20:47;6.80;;;5.00;;
79128;SDS011;68529;43.286;23.360;2024-01-15T05:23:12;8.60;;;5.53;;
79128;SDS011;68529;43.286;23.360;2024-01-15T05:25:38;6.03;;;4.03;;
79128;SDS011;68529;43.286;23.360;2024-01-15T05:28:04;5.93;;;4.40;;
79128;SDS011;68529;43.286;23.360;2024-01-15T05:30:30;5.87;;;4.47;;
79128;SDS011;68529;43.286;23.360;2024-01-15T05:32:55;3.80;;;3.40;;
79128;SDS011;68529;43.286;23.360;2024-01-15T05:35:20;5.53;;;4.50;;
79128;SDS011;68529;43.286;23.360;2024-01-15T05:37:46;5.90;;;5.30;;
79128;SDS011;68529;43.286;23.360;2024-01-15T05:40:12;6.73;;;4.47;;
79128;SDS011;68529;43.286;23.360;2024-01-15T05:42:38;5.10;;;4.60;;
79128;SDS011;68529;43.286;23.360;2024-01-15T05:45:04;5.43;;;4.93;;
79128;SDS011;68529;43.286;23.360;2024-01-15T05:47:30;4.73;;;4.13;;
79128;SDS011;68529;43.286;23.360;2024-01-15T05:49:56;5.30;;;4.60;;
79128;SDS011;68529;43.286;23.360;2024-01-15T05:52:22;3.83;;;3.30;;
79128;SDS011;68529;43.286;23.360;2024-01-15T05:54:47;4.20;;;3.80;;
79128;SDS011;68529;43.286;23.360;2024-01-15T05:57:13;4.37;;;3.40;;
79128;SDS011;68529;43.286;23.360;2024-01-15T05:59:38;4.60;;;3.57;;
79128;SDS011;68529;43.286;23.360;2024-01-15T06:02:04;8.47;;;5.87;;
79128;SDS011;68529;43.286;23.360;2024-01-15T06:04:29;5.47;;;4.40;;
79128;SDS011;68529;43.286;23.360;2024-01-15T06:06:55;3.73;;;3.33;;
79128;SDS011;68529;43.286;23.360;2024-01-15T06:09:20;3.47;;;3.17;;
79128;SDS011;68529;43.286;23.360;2024-01-15T06:11:46;3.30;;;2.80;;
79128;SDS011;68529;43.286;23.360;2024-01-15T06:14:11;4.40;;;2.73;;
79128;SDS011;68529;43.286;23.360;2024-01-15T06:16:36;3.70;;;3.40;;
79128;SDS011;68529;43.286;23.360;2024-01-15T06:19:02;6.17;;;4.30;;
79128;SDS011;68529;43.286;23.360;2024-01-15T06:21:28;5.73;;;4.00;;
79128;SDS011;68529;43.286;23.360;2024-01-15T06:23:53;6.70;;;5.33;;
79128;SDS011;68529;43.286;23.360;2024-01-15T06:26:18;8.23;;;6.33;;
79128;SDS011;68529;43.286;23.360;2024-01-15T06:28:44;5.10;;;4.60;;
79128;SDS011;68529;43.286;23.360;2024-01-15T06:31:09;4.53;;;3.43;;
79128;SDS011;68529;43.286;23.360;2024-01-15T06:33:35;12.73;;;8.27;;
79128;SDS011;68529;43.286;23.360;2024-01-15T06:36:00;9.47;;;7.43;;
79128;SDS011;68529;43.286;23.360;2024-01-15T06:38:26;8.47;;;6.50;;
79128;SDS011;68529;43.286;23.360;2024-01-15T06:40:51;8.03;;;6.90;;
79128;SDS011;68529;43.286;23.360;2024-01-15T06:43:16;11.50;;;7.37;;
79128;SDS011;68529;43.286;23.360;2024-01-15T06:45:42;13.93;;;9.60;;
79128;SDS011;68529;43.286;23.360;2024-01-15T06:48:08;14.30;;;10.50;;
79128;SDS011;68529;43.286;23.360;2024-01-15T06:50:34;16.33;;;11.63;;
79128;SDS011;68529;43.286;23.360;2024-01-15T06:52:59;16.67;;;13.10;;
79128;SDS011;68529;43.286;23.360;2024-01-15T06:55:25;13.70;;;9.53;;
79128;SDS011;68529;43.286;23.360;2024-01-15T06:57:50;13.60;;;10.37;;
79128;SDS011;68529;43.286;23.360;2024-01-15T07:00:16;23.10;;;15.10;;
79128;SDS011;68529;43.286;23.360;2024-01-15T07:02:43;26.83;;;17.20;;
79128;SDS011;68529;43.286;23.360;2024-01-15T07:05:08;18.87;;;13.90;;
79128;SDS011;68529;43.286;23.360;2024-01-15T07:07:33;25.57;;;15.73;;
79128;SDS011;68529;43.286;23.360;2024-01-15T07:09:59;19.67;;;14.13;;
79128;SDS011;68529;43.286;23.360;2024-01-15T07:12:24;18.30;;;13.40;;
79128;SDS011;68529;43.286;23.360;2024-01-15T07:14:50;54.33;;;30.37;;
79128;SDS011;68529;43.286;23.360;2024-01-15T07:17:15;40.07;;;23.07;;
79128;SDS011;68529;43.286;23.360;2024-01-15T07:19:40;28.27;;;18.63;;
79128;SDS011;68529;43.286;23.360;2024-01-15T07:22:06;21.13;;;15.10;;
79128;SDS011;68529;43.286;23.360;2024-01-15T07:24:31;58.90;;;31.10;;
79128;SDS011;68529;43.286;23.360;2024-01-15T07:26:59;30.57;;;20.03;;
79128;SDS011;68529;43.286;23.360;2024-01-15T07:29:24;24.03;;;16.47;;
79128;SDS011;68529;43.286;23.360;2024-01-15T07:31:50;23.07;;;16.17;;
79128;SDS011;68529;43.286;23.360;2024-01-15T07:34:16;26.37;;;16.33;;
79128;SDS011;68529;43.286;23.360;2024-01-15T07:36:45;36.13;;;24.57;;
79128;SDS011;68529;43.286;23.360;2024-01-15T07:39:11;54.97;;;30.87;;
79128;SDS011;68529;43.286;23.360;2024-01-15T07:41:36;83.53;;;39.47;;
79128;SDS011;68529;43.286;23.360;2024-01-15T07:44:02;95.03;;;44.60;;
79128;SDS011;68529;43.286;23.360;2024-01-15T07:46:28;95.10;;;48.50;;
79128;SDS011;68529;43.286;23.360;2024-01-15T07:48:53;94.83;;;49.20;;
79128;SDS011;68529;43.286;23.360;2024-01-15T07:51:24;56.33;;;33.87;;
79128;SDS011;68529;43.286;23.360;2024-01-15T07:53:53;90.70;;;46.90;;
79128;SDS011;68529;43.286;23.360;2024-01-15T07:56:20;59.43;;;32.53;;
79128;SDS011;68529;43.286;23.360;2024-01-15T07:58:46;42.17;;;27.37;;
79128;SDS011;68529;43.286;23.360;2024-01-15T08:01:11;33.50;;;23.67;;
79128;SDS011;68529;43.286;23.360;2024-01-15T08:03:37;36.73;;;24.00;;
79128;SDS011;68529;43.286;23.360;2024-01-15T08:06:02;65.00;;;40.50;;
79128;SDS011;68529;43.286;23.360;2024-01-15T08:08:28;70.63;;;44.57;;
79128;SDS011;68529;43.286;23.360;2024-01-15T08:10:53;57.73;;;37.23;;
79128;SDS011;68529;43.286;23.360;2024-01-15T08:13:19;60.97;;;40.23;;
79128;SDS011;68529;43.286;23.360;2024-01-15T08:15:45;55.07;;;36.83;;
79128;SDS011;68529;43.286;23.360;2024-01-15T08:18:11;58.70;;;35.33;;
79128;SDS011;68529;43.286;23.360;2024-01-15T08:20:37;39.43;;;25.73;;
79128;SDS011;68529;43.286;23.360;2024-01-15T08:23:02;31.50;;;23.17;;
79128;SDS011;68529;43.286;23.360;2024-01-15T08:25:28;23.33;;;16.87;;
79128;SDS011;68529;43.286;23.360;2024-01-15T08:27:53;24.10;;;18.37;;
79128;SDS011;68529;43.286;23.360;2024-01-15T08:30:19;21.60;;;14.73;;
79128;SDS011;68529;43.286;23.360;2024-01-15T08:32:45;19.17;;;15.07;;
79128;SDS011;68529;43.286;23.360;2024-01-15T08:35:11;13.57;;;10.20;;
79128;SDS011;68529;43.286;23.360;2024-01-15T08:37:36;6.83;;;5.77;;
79128;SDS011;68529;43.286;23.360;2024-01-15T08:40:03;7.37;;;6.13;;
79128;SDS011;68529;43.286;23.360;2024-01-15T08:42:29;4.13;;;3.40;;
79128;SDS011;68529;43.286;23.360;2024-01-15T08:44:54;3.10;;;2.80;;
79128;SDS011;68529;43.286;23.360;2024-01-15T08:47:20;6.17;;;5.10;;
79128;SDS011;68529;43.286;23.360;2024-01-15T08:49:45;9.13;;;7.40;;
79128;SDS011;68529;43.286;23.360;2024-01-15T08:52:11;3.00;;;2.63;;
79128;SDS011;68529;43.286;23.360;2024-01-15T08:54:36;4.53;;;3.13;;
79128;SDS011;68529;43.286;23.360;2024-01-15T08:57:02;3.20;;;2.70;;
79128;SDS011;68529;43.286;23.360;2024-01-15T08:59:28;5.10;;;3.20;;
79128;SDS011;68529;43.286;23.360;2024-01-15T09:01:53;4.20;;;3.80;;
79128;SDS011;68529;43.286;23.360;2024-01-15T09:04:19;3.77;;;3.30;;
79128;SDS011;68529;43.286;23.360;2024-01-15T09:06:47;4.13;;;3.73;;
79128;SDS011;68529;43.286;23.360;2024-01-15T09:09:13;5.37;;;3.30;;
79128;SDS011;68529;43.286;23.360;2024-01-15T09:11:40;4.10;;;2.93;;
79128;SDS011;68529;43.286;23.360;2024-01-15T09:14:05;3.30;;;3.00;;
79128;SDS011;68529;43.286;23.360;2024-01-15T09:16:31;2.70;;;2.50;;
79128;SDS011;68529;43.286;23.360;2024-01-15T09:18:57;22.63;;;16.67;;
79128;SDS011;68529;43.286;23.360;2024-01-15T09:21:22;4.80;;;4.30;;
79128;SDS011;68529;43.286;23.360;2024-01-15T09:23:49;2.97;;;2.73;;
79128;SDS011;68529;43.286;23.360;2024-01-15T09:26:15;4.80;;;3.60;;
79128;SDS011;68529;43.286;23.360;2024-01-15T09:28:41;25.00;;;4.57;;
79128;SDS011;68529;43.286;23.360;2024-01-15T09:31:06;2.57;;;2.23;;
79128;SDS011;68529;43.286;23.360;2024-01-15T09:33:32;3.20;;;2.80;;
79128;SDS011;68529;43.286;23.360;2024-01-15T09:35:57;5.67;;;2.00;;
79128;SDS011;68529;43.286;23.360;2024-01-15T09:38:28;1.90;;;1.80;;
79128;SDS011;68529;43.286;23.360;2024-01-15T09:40:54;2.87;;;2.20;;
79128;SDS011;68529;43.286;23.360;2024-01-15T09:43:20;3.30;;;2.20;;
79128;SDS011;68529;43.286;23.360;2024-01-15T09:45:46;17.13;;;3.63;;
79128;SDS011;68529;43.286;23.360;2024-01-15T09:48:12;5.13;;;2.07;;
79128;SDS011;68529;43.286;23.360;2024-01-15T09:50:38;2.30;;;1.47;;
79128;SDS011;68529;43.286;23.360;2024-01-15T09:53:04;5.70;;;2.23;;
79128;SDS011;68529;43.286;23.360;2024-01-15T09:55:30;2.87;;;1.87;;
79128;SDS011;68529;43.286;23.360;2024-01-15T09:57:57;3.80;;;2.80;;
79128;SDS011;68529;43.286;23.360;2024-01-15T10:00:26;4.83;;;2.60;;
79128;SDS011;68529;43.286;23.360;2024-01-15T10:02:53;5.17;;;2.40;;
79128;SDS011;68529;43.286;23.360;2024-01-15T10:05:18;2.43;;;1.97;;
79128;SDS011;68529;43.286;23.360;2024-01-15T10:07:44;5.23;;;2.80;;
79128;SDS011;68529;43.286;23.360;2024-01-15T10:10:11;4.07;;;3.40;;
79128;SDS011;68529;43.286;23.360;2024-01-15T10:12:36;3.03;;;2.57;;
79128;SDS011;68529;43.286;23.360;2024-01-15T10:15:04;3.07;;;2.77;;
79128;SDS011;68529;43.286;23.360;2024-01-15T10:17:30;5.20;;;3.50;;
79128;SDS011;68529;43.286;23.360;2024-01-15T10:19:56;5.53;;;3.73;;
79128;SDS011;68529;43.286;23.360;2024-01-15T10:22:22;4.23;;;3.33;;
79128;SDS011;68529;43.286;23.360;2024-01-15T10:24:48;6.33;;;5.37;;
79128;SDS011;68529;43.286;23.360;2024-01-15T10:27:14;4.67;;;3.40;;
79128;SDS011;68529;43.286;23.360;2024-01-15T10:29:40;3.80;;;3.40;;
79128;SDS011;68529;43.286;23.360;2024-01-15T10:32:07;3.30;;;3.00;;
79128;SDS011;68529;43.286;23.360;2024-01-15T10:34:39;2.53;;;2.33;;
79128;SDS011;68529;43.286;23.360;2024-01-15T10:37:08;3.43;;;2.30;;
79128;SDS011;68529;43.286;23.360;2024-01-15T10:39:34;4.60;;;2.67;;
79128;SDS011;68529;43.286;23.360;2024-01-15T10:42:01;2.57;;;2.37;;
79128;SDS011;68529;43.286;23.360;2024-01-15T10:44:26;5.00;;;2.50;;
79128;SDS011;68529;43.286;23.360;2024-01-15T10:46:52;3.37;;;2.33;;
79128;SDS011;68529;43.286;23.360;2024-01-15T10:49:18;2.90;;;2.43;;
79128;SDS011;68529;43.286;23.360;2024-01-15T10:51:45;3.00;;;2.20;;
79128;SDS011;68529;43.286;23.360;2024-01-15T10:54:13;2.40;;;2.13;;
79128;SDS011;68529;43.286;23.360;2024-01-15T10:56:39;2.27;;;2.07;;
79128;SDS011;68529;43.286;23.360;2024-01-15T10:59:06;2.90;;;2.30;;
79128;SDS011;68529;43.286;23.360;2024-01-15T11:01:35;2.20;;;2.00;;
79128;SDS011;68529;43.286;23.360;2024-01-15T11:04:01;5.67;;;3.20;;
79128;SDS011;68529;43.286;23.360;2024-01-15T11:06:27;4.27;;;3.40;;
79128;SDS011;68529;43.286;23.360;2024-01-15T11:09:05;6.20;;;3.17;;
79128;SDS011;68529;43.286;23.360;2024-01-15T11:11:34;3.67;;;2.93;;
79128;SDS011;68529;43.286;23.360;2024-01-15T11:14:01;2.50;;;2.30;;
79128;SDS011;68529;43.286;23.360;2024-01-15T11:16:26;5.60;;;2.87;;
79128;SDS011;68529;43.286;23.360;2024-01-15T11:19:22;4.27;;;3.47;;
79128;SDS011;68529;43.286;23.360;2024-01-15T11:21:47;5.73;;;4.10;;
79128;SDS011;68529;43.286;23.360;2024-01-15T11:24:32;5.50;;;3.40;;
79128;SDS011;68529;43.286;23.360;2024-01-15T11:27:02;13.37;;;6.20;;
79128;SDS011;68529;43.286;23.360;2024-01-15T11:32:07;3.30;;;2.73;;
79128;SDS011;68529;43.286;23.360;2024-01-15T11:37:19;3.20;;;2.80;;
79128;SDS011;68529;43.286;23.360;2024-01-15T11:39:45;4.77;;;3.57;;
79128;SDS011;68529;43.286;23.360;2024-01-15T11:42:14;3.50;;;3.20;;
79128;SDS011;68529;43.286;23.360;2024-01-15T11:44:40;3.27;;;2.97;;
79128;SDS011;68529;43.286;23.360;2024-01-15T11:47:06;4.57;;;2.83;;
79128;SDS011;68529;43.286;23.360;2024-01-15T11:52:23;3.90;;;3.50;;
79128;SDS011;68529;43.286;23.360;2024-01-15T12:00:08;3.83;;;2.90;;
79128;SDS011;68529;43.286;23.360;2024-01-15T12:02:35;3.03;;;2.67;;
79128;SDS011;68529;43.286;23.360;2024-01-15T12:05:01;4.37;;;2.70;;
79128;SDS011;68529;43.286;23.360;2024-01-15T12:07:27;4.17;;;3.10;;
79128;SDS011;68529;43.286;23.360;2024-01-15T12:09:52;4.23;;;3.13;;
79128;SDS011;68529;43.286;23.360;2024-01-15T12:12:39;4.63;;;3.60;;
79128;SDS011;68529;43.286;23.360;2024-01-15T12:15:07;4.53;;;3.23;;
79128;SDS011;68529;43.286;23.360;2024-01-15T12:17:33;2.93;;;2.60;;
79128;SDS011;68529;43.286;23.360;2024-01-15T12:19:59;4.80;;;3.70;;
79128;SDS011;68529;43.286;23.360;2024-01-15T12:22:25;4.83;;;2.77;;
79128;SDS011;68529;43.286;23.360;2024-01-15T12:24:52;4.77;;;2.83;;
79128;SDS011;68529;43.286;23.360;2024-01-15T12:27:18;3.73;;;2.87;;
79128;SDS011;68529;43.286;23.360;2024-01-15T12:29:43;3.50;;;3.07;;
79128;SDS011;68529;43.286;23.360;2024-01-15T12:32:09;3.87;;;3.03;;
79128;SDS011;68529;43.286;23.360;2024-01-15T12:34:34;4.63;;;3.10;;
79128;SDS011;68529;43.286;23.360;2024-01-15T12:37:00;5.77;;;4.63;;
79128;SDS011;68529;43.286;23.360;2024-01-15T12:39:25;11.70;;;8.87;;
79128;SDS011;68529;43.286;23.360;2024-01-15T12:41:51;30.40;;;20.73;;
79128;SDS011;68529;43.286;23.360;2024-01-15T12:44:16;12.27;;;7.83;;
79128;SDS011;68529;43.286;23.360;2024-01-15T12:46:42;9.20;;;5.60;;
79128;SDS011;68529;43.286;23.360;2024-01-15T12:49:07;10.50;;;8.03;;
79128;SDS011;68529;43.286;23.360;2024-01-15T12:51:34;8.10;;;5.63;;
79128;SDS011;68529;43.286;23.360;2024-01-15T12:53:59;4.50;;;3.80;;
79128;SDS011;68529;43.286;23.360;2024-01-15T12:56:25;4.80;;;4.00;;
79128;SDS011;68529;43.286;23.360;2024-01-15T12:58:50;4.27;;;3.30;;
79128;SDS011;68529;43.286;23.360;2024-01-15T13:01:15;6.03;;;3.90;;
79128;SDS011;68529;43.286;23.360;2024-01-15T13:03:41;6.07;;;3.90;;
79128;SDS011;68529;43.286;23.360;2024-01-15T13:06:06;4.30;;;2.90;;
79128;SDS011;68529;43.286;23.360;2024-01-15T13:08:32;5.10;;;4.00;;
79128;SDS011;68529;43.286;23.360;2024-01-15T13:10:57;6.20;;;4.33;;
79128;SDS011;68529;43.286;23.360;2024-01-15T13:13:23;3.97;;;2.93;;
79128;SDS011;68529;43.286;23.360;2024-01-15T13:15:48;3.60;;;2.77;;
79128;SDS011;68529;43.286;23.360;2024-01-15T13:18:14;4.03;;;2.90;;
79128;SDS011;68529;43.286;23.360;2024-01-15T13:20:39;4.63;;;3.53;;
79128;SDS011;68529;43.286;23.360;2024-01-15T13:23:04;4.60;;;3.77;;
79128;SDS011;68529;43.286;23.360;2024-01-15T13:25:30;4.67;;;3.97;;
79128;SDS011;68529;43.286;23.360;2024-01-15T13:27:57;3.23;;;2.93;;
79128;SDS011;68529;43.286;23.360;2024-01-15T13:30:22;4.17;;;2.93;;
79128;SDS011;68529;43.286;23.360;2024-01-15T13:32:48;3.87;;;3.20;;
79128;SDS011;68529;43.286;23.360;2024-01-15T13:35:13;87.33;;;41.53;;
79128;SDS011;68529;43.286;23.360;2024-01-15T13:37:39;18.87;;;11.10;;
79128;SDS011;68529;43.286;23.360;2024-01-15T13:40:06;101.50;;;46.33;;
79128;SDS011;68529;43.286;23.360;2024-01-15T13:42:34;85.53;;;41.97;;
79128;SDS011;68529;43.286;23.360;2024-01-15T13:45:03;24.27;;;14.10;;
79128;SDS011;68529;43.286;23.360;2024-01-15T13:47:30;20.17;;;10.87;;
79128;SDS011;68529;43.286;23.360;2024-01-15T13:49:56;21.00;;;11.03;;
79128;SDS011;68529;43.286;23.360;2024-01-15T13:52:21;8.20;;;6.17;;
79128;SDS011;68529;43.286;23.360;2024-01-15T13:54:46;14.80;;;10.43;;
79128;SDS011;68529;43.286;23.360;2024-01-15T13:57:12;9.23;;;6.40;;
79128;SDS011;68529;43.286;23.360;2024-01-15T13:59:37;8.67;;;6.17;;
79128;SDS011;68529;43.286;23.360;2024-01-15T14:02:03;4.93;;;3.30;;
79128;SDS011;68529;43.286;23.360;2024-01-15T14:04:30;15.87;;;9.80;;
79128;SDS011;68529;43.286;23.360;2024-01-15T14:06:55;5.03;;;4.10;;
79128;SDS011;68529;43.286;23.360;2024-01-15T14:09:21;7.53;;;6.10;;
79128;SDS011;68529;43.286;23.360;2024-01-15T14:11:47;9.27;;;5.93;;
79128;SDS011;68529;43.286;23.360;2024-01-15T14:14:12;16.57;;;10.47;;
79128;SDS011;68529;43.286;23.360;2024-01-15T14:16:39;4.87;;;3.47;;
79128;SDS011;68529;43.286;23.360;2024-01-15T14:19:04;4.10;;;3.70;;
79128;SDS011;68529;43.286;23.360;2024-01-15T14:21:31;2.77;;;2.33;;
79128;SDS011;68529;43.286;23.360;2024-01-15T14:23:56;3.13;;;2.60;;
79128;SDS011;68529;43.286;23.360;2024-01-15T14:26:22;3.17;;;2.40;;
79128;SDS011;68529;43.286;23.360;2024-01-15T14:28:47;15.27;;;9.80;;
79128;SDS011;68529;43.286;23.360;2024-01-15T14:31:13;13.23;;;10.77;;